sensor_id;sensor_type;location;lat;lon;timestamp;P1;durP1;ratioP1;P2;durP2;ratioP2
42096;SDS011;27754;45.414;11.084;2023-09-19T00:00:56;15.82;;;8.35;;
42096;SDS011;27754;45.414;11.084;2023-09-19T00:03:24;16.40;;;7.90;;
42096;SDS011;27754;45.414;11.084;2023-09-19T00:05:55;18.00;;;8.07;;
42096;SDS011;27754;45.414;11.084;2023-09-19T00:08:25;16.40;;;7.93;;
42096;SDS011;27754;45.414;11.084;2023-09-19T00:10:52;14.07;;;7.40;;
42096;SDS011;27754;45.414;11.084;2023-09-19T00:13:21;15.95;;;7.00;;
42096;SDS011;27754;45.414;11.084;2023-09-19T00:15:48;13.18;;;6.88;;
42096;SDS011;27754;45.414;11.084;2023-09-19T00:18:20;17.42;;;7.85;;
42096;SDS011;27754;45.414;11.084;2023-09-19T00:20:49;14.93;;;8.15;;
42096;SDS011;27754;45.414;11.084;2023-09-19T00:23:19;14.52;;;6.80;;
42096;SDS011;27754;45.414;11.084;2023-09-19T00:25:47;12.88;;;7.05;;
42096;SDS011;27754;45.414;11.084;2023-09-19T00:28:15;14.90;;;8.18;;
42096;SDS011;27754;45.414;11.084;2023-09-19T00:30:44;14.38;;;7.32;;
42096;SDS011;27754;45.414;11.084;2023-09-19T00:33:11;15.30;;;7.15;;
42096;SDS011;27754;45.414;11.084;2023-09-19T00:38:17;12.07;;;6.13;;
42096;SDS011;27754;45.414;11.084;2023-09-19T00:40:48;17.73;;;6.13;;
42096;SDS011;27754;45.414;11.084;2023-09-19T00:43:17;14.48;;;6.13;;
42096;SDS011;27754;45.414;11.084;2023-09-19T00:45:45;16.55;;;6.30;;
42096;SDS011;27754;45.414;11.084;2023-09-19T00:48:18;12.52;;;6.35;;
42096;SDS011;27754;45.414;11.084;2023-09-19T00:50:47;12.38;;;6.20;;
42096;SDS011;27754;45.414;11.084;2023-09-19T00:53:22;16.05;;;6.85;;
42096;SDS011;27754;45.414;11.084;2023-09-19T00:55:53;15.43;;;7.18;;
42096;SDS011;27754;45.414;11.084;2023-09-19T00:58:22;16.80;;;7.68;;
42096;SDS011;27754;45.414;11.084;2023-09-19T01:00:49;19.65;;;8.10;;
42096;SDS011;27754;45.414;11.084;2023-09-19T01:03:17;16.92;;;7.63;;
42096;SDS011;27754;45.414;11.084;2023-09-19T01:05:45;14.88;;;7.63;;
42096;SDS011;27754;45.414;11.084;2023-09-19T01:08:12;14.65;;;7.05;;
42096;SDS011;27754;45.414;11.084;2023-09-19T01:10:42;15.18;;;7.75;;
42096;SDS011;27754;45.414;11.084;2023-09-19T01:13:22;18.15;;;8.15;;
42096;SDS011;27754;45.414;11.084;2023-09-19T01:21:11;17.73;;;8.57;;
42096;SDS011;27754;45.414;11.084;2023-09-19T01:26:18;16.33;;;8.55;;
42096;SDS011;27754;45.414;11.084;2023-09-19T01:32:06;17.13;;;8.07;;
42096;SDS011;27754;45.414;11.084;2023-09-19T01:34:54;18.98;;;8.63;;
42096;SDS011;27754;45.414;11.084;2023-09-19T01:37:30;17.15;;;8.40;;
42096;SDS011;27754;45.414;11.084;2023-09-19T01:42:52;17.45;;;9.05;;
42096;SDS011;27754;45.414;11.084;2023-09-19T01:48:25;20.83;;;9.98;;
42096;SDS011;27754;45.414;11.084;2023-09-19T01:51:09;26.20;;;9.63;;
42096;SDS011;27754;45.414;11.084;2023-09-19T01:53:51;19.17;;;9.07;;
42096;SDS011;27754;45.414;11.084;2023-09-19T01:59:16;15.32;;;9.00;;
42096;SDS011;27754;45.414;11.084;2023-09-19T02:01:51;19.55;;;9.35;;
42096;SDS011;27754;45.414;11.084;2023-09-19T02:04:20;18.95;;;8.35;;
42096;SDS011;27754;45.414;11.084;2023-09-19T02:06:47;17.45;;;8.55;;
42096;SDS011;27754;45.414;11.084;2023-09-19T02:09:14;15.93;;;8.20;;
42096;SDS011;27754;45.414;11.084;2023-09-19T02:11:41;17.23;;;8.52;;
42096;SDS011;27754;45.414;11.084;2023-09-19T02:14:08;16.38;;;8.73;;
42096;SDS011;27754;45.414;11.084;2023-09-19T02:16:36;14.77;;;8.82;;
42096;SDS011;27754;45.414;11.084;2023-09-19T02:19:04;19.38;;;9.88;;
42096;SDS011;27754;45.414;11.084;2023-09-19T02:21:32;15.27;;;8.45;;
42096;SDS011;27754;45.414;11.084;2023-09-19T02:23:59;16.23;;;8.27;;
42096;SDS011;27754;45.414;11.084;2023-09-19T02:26:26;16.73;;;9.13;;
42096;SDS011;27754;45.414;11.084;2023-09-19T02:28:54;18.45;;;9.40;;
42096;SDS011;27754;45.414;11.084;2023-09-19T02:31:21;18.95;;;8.48;;
42096;SDS011;27754;45.414;11.084;2023-09-19T02:33:48;16.45;;;8.50;;
42096;SDS011;27754;45.414;11.084;2023-09-19T02:36:15;19.38;;;9.15;;
42096;SDS011;27754;45.414;11.084;2023-09-19T02:38:43;15.40;;;8.20;;
42096;SDS011;27754;45.414;11.084;2023-09-19T02:41:10;20.83;;;9.30;;
42096;SDS011;27754;45.414;11.084;2023-09-19T02:43:38;20.08;;;9.77;;
42096;SDS011;27754;45.414;11.084;2023-09-19T02:46:06;16.60;;;8.43;;
42096;SDS011;27754;45.414;11.084;2023-09-19T02:48:33;23.42;;;8.98;;
42096;SDS011;27754;45.414;11.084;2023-09-19T02:51:02;17.30;;;8.80;;
42096;SDS011;27754;45.414;11.084;2023-09-19T02:53:31;17.67;;;8.52;;
42096;SDS011;27754;45.414;11.084;2023-09-19T02:55:59;22.95;;;9.07;;
42096;SDS011;27754;45.414;11.084;2023-09-19T02:58:27;15.68;;;8.07;;
42096;SDS011;27754;45.414;11.084;2023-09-19T03:00:56;23.60;;;9.88;;
42096;SDS011;27754;45.414;11.084;2023-09-19T03:03:24;19.60;;;9.20;;
42096;SDS011;27754;45.414;11.084;2023-09-19T03:05:52;17.45;;;8.93;;
42096;SDS011;27754;45.414;11.084;2023-09-19T03:08:21;14.32;;;7.93;;
42096;SDS011;27754;45.414;11.084;2023-09-19T03:10:48;17.88;;;7.95;;
42096;SDS011;27754;45.414;11.084;2023-09-19T03:13:16;16.30;;;8.88;;
42096;SDS011;27754;45.414;11.084;2023-09-19T03:15:43;17.80;;;9.32;;
42096;SDS011;27754;45.414;11.084;2023-09-19T03:18:15;20.50;;;8.15;;
42096;SDS011;27754;45.414;11.084;2023-09-19T03:20:42;19.40;;;9.20;;
42096;SDS011;27754;45.414;11.084;2023-09-19T03:23:10;17.88;;;8.60;;
42096;SDS011;27754;45.414;11.084;2023-09-19T03:25:39;21.20;;;9.07;;
42096;SDS011;27754;45.414;11.084;2023-09-19T03:28:07;14.23;;;8.13;;
42096;SDS011;27754;45.414;11.084;2023-09-19T03:30:34;18.50;;;8.50;;
42096;SDS011;27754;45.414;11.084;2023-09-19T03:33:03;16.55;;;8.05;;
42096;SDS011;27754;45.414;11.084;2023-09-19T03:35:33;17.15;;;8.07;;
42096;SDS011;27754;45.414;11.084;2023-09-19T03:38:01;19.42;;;8.02;;
42096;SDS011;27754;45.414;11.084;2023-09-19T03:40:29;16.75;;;7.82;;
42096;SDS011;27754;45.414;11.084;2023-09-19T03:42:59;18.83;;;8.30;;
42096;SDS011;27754;45.414;11.084;2023-09-19T03:45:27;18.77;;;8.23;;
42096;SDS011;27754;45.414;11.084;2023-09-19T03:47:54;15.52;;;7.70;;
42096;SDS011;27754;45.414;11.084;2023-09-19T03:50:23;14.35;;;8.20;;
42096;SDS011;27754;45.414;11.084;2023-09-19T03:52:50;25.15;;;8.40;;
42096;SDS011;27754;45.414;11.084;2023-09-19T03:55:22;14.85;;;8.13;;
42096;SDS011;27754;45.414;11.084;2023-09-19T03:57:49;14.93;;;7.75;;
42096;SDS011;27754;45.414;11.084;2023-09-19T04:00:17;19.75;;;8.65;;
42096;SDS011;27754;45.414;11.084;2023-09-19T04:02:48;16.10;;;7.90;;
42096;SDS011;27754;45.414;11.084;2023-09-19T04:05:15;15.73;;;8.30;;
42096;SDS011;27754;45.414;11.084;2023-09-19T04:07:44;14.98;;;7.65;;
42096;SDS011;27754;45.414;11.084;2023-09-19T04:10:12;18.25;;;8.07;;
42096;SDS011;27754;45.414;11.084;2023-09-19T04:12:40;16.10;;;8.80;;
42096;SDS011;27754;45.414;11.084;2023-09-19T04:15:07;18.38;;;8.40;;
42096;SDS011;27754;45.414;11.084;2023-09-19T04:17:35;16.92;;;7.97;;
42096;SDS011;27754;45.414;11.084;2023-09-19T04:20:03;18.50;;;8.75;;
42096;SDS011;27754;45.414;11.084;2023-09-19T04:22:34;16.55;;;8.15;;
42096;SDS011;27754;45.414;11.084;2023-09-19T04:25:01;14.88;;;8.43;;
42096;SDS011;27754;45.414;11.084;2023-09-19T04:27:29;17.08;;;8.02;;
42096;SDS011;27754;45.414;11.084;2023-09-19T04:29:56;13.63;;;8.38;;
42096;SDS011;27754;45.414;11.084;2023-09-19T04:32:28;16.77;;;7.80;;
42096;SDS011;27754;45.414;11.084;2023-09-19T04:34:56;18.45;;;8.98;;
42096;SDS011;27754;45.414;11.084;2023-09-19T04:37:26;17.38;;;7.93;;
42096;SDS011;27754;45.414;11.084;2023-09-19T04:39:53;13.70;;;7.15;;
42096;SDS011;27754;45.414;11.084;2023-09-19T04:42:20;15.27;;;7.65;;
42096;SDS011;27754;45.414;11.084;2023-09-19T04:44:48;26.05;;;8.90;;
42096;SDS011;27754;45.414;11.084;2023-09-19T04:47:16;18.88;;;8.57;;
42096;SDS011;27754;45.414;11.084;2023-09-19T04:49:43;14.95;;;7.55;;
42096;SDS011;27754;45.414;11.084;2023-09-19T04:52:10;15.82;;;7.85;;
42096;SDS011;27754;45.414;11.084;2023-09-19T04:54:37;14.90;;;7.40;;
42096;SDS011;27754;45.414;11.084;2023-09-19T04:57:04;18.70;;;8.80;;
42096;SDS011;27754;45.414;11.084;2023-09-19T04:59:32;18.55;;;8.18;;
42096;SDS011;27754;45.414;11.084;2023-09-19T05:01:59;16.33;;;9.02;;
42096;SDS011;27754;45.414;11.084;2023-09-19T05:04:26;22.92;;;8.30;;
42096;SDS011;27754;45.414;11.084;2023-09-19T05:06:53;14.00;;;7.68;;
42096;SDS011;27754;45.414;11.084;2023-09-19T05:09:21;18.27;;;8.27;;
42096;SDS011;27754;45.414;11.084;2023-09-19T05:11:47;19.13;;;8.73;;
42096;SDS011;27754;45.414;11.084;2023-09-19T05:14:15;11.18;;;6.97;;
42096;SDS011;27754;45.414;11.084;2023-09-19T05:16:42;17.92;;;8.13;;
42096;SDS011;27754;45.414;11.084;2023-09-19T05:19:09;14.68;;;8.07;;
42096;SDS011;27754;45.414;11.084;2023-09-19T05:21:38;15.27;;;7.38;;
42096;SDS011;27754;45.414;11.084;2023-09-19T05:24:05;17.33;;;7.35;;
42096;SDS011;27754;45.414;11.084;2023-09-19T05:26:36;17.25;;;7.38;;
42096;SDS011;27754;45.414;11.084;2023-09-19T05:29:03;20.25;;;7.05;;
42096;SDS011;27754;45.414;11.084;2023-09-19T05:31:31;15.23;;;7.18;;
42096;SDS011;27754;45.414;11.084;2023-09-19T05:33:58;20.23;;;7.07;;
42096;SDS011;27754;45.414;11.084;2023-09-19T05:36:27;25.38;;;7.88;;
42096;SDS011;27754;45.414;11.084;2023-09-19T05:38:56;18.48;;;7.32;;
42096;SDS011;27754;45.414;11.084;2023-09-19T05:41:23;18.17;;;6.50;;
42096;SDS011;27754;45.414;11.084;2023-09-19T05:43:50;16.90;;;6.82;;
42096;SDS011;27754;45.414;11.084;2023-09-19T05:46:17;16.90;;;7.45;;
42096;SDS011;27754;45.414;11.084;2023-09-19T05:48:44;17.00;;;7.70;;
42096;SDS011;27754;45.414;11.084;2023-09-19T05:51:14;19.30;;;7.75;;
42096;SDS011;27754;45.414;11.084;2023-09-19T05:53:41;20.27;;;7.40;;
42096;SDS011;27754;45.414;11.084;2023-09-19T05:56:09;19.88;;;7.85;;
42096;SDS011;27754;45.414;11.084;2023-09-19T05:58:37;17.20;;;7.82;;
42096;SDS011;27754;45.414;11.084;2023-09-19T06:01:05;19.38;;;8.50;;
42096;SDS011;27754;45.414;11.084;2023-09-19T06:03:33;16.17;;;7.80;;
42096;SDS011;27754;45.414;11.084;2023-09-19T06:06:02;18.10;;;8.10;;
42096;SDS011;27754;45.414;11.084;2023-09-19T06:08:29;15.90;;;8.65;;
42096;SDS011;27754;45.414;11.084;2023-09-19T06:10:57;19.52;;;8.95;;
42096;SDS011;27754;45.414;11.084;2023-09-19T06:13:24;29.98;;;9.32;;
42096;SDS011;27754;45.414;11.084;2023-09-19T06:15:54;24.92;;;8.40;;
42096;SDS011;27754;45.414;11.084;2023-09-19T06:18:22;22.45;;;8.48;;
42096;SDS011;27754;45.414;11.084;2023-09-19T06:20:52;15.95;;;7.65;;
42096;SDS011;27754;45.414;11.084;2023-09-19T06:23:20;16.95;;;7.90;;
42096;SDS011;27754;45.414;11.084;2023-09-19T06:25:47;14.23;;;8.00;;
42096;SDS011;27754;45.414;11.084;2023-09-19T06:28:15;13.73;;;8.25;;
42096;SDS011;27754;45.414;11.084;2023-09-19T06:30:44;14.82;;;8.23;;
42096;SDS011;27754;45.414;11.084;2023-09-19T06:33:12;20.38;;;8.80;;
42096;SDS011;27754;45.414;11.084;2023-09-19T06:35:43;18.85;;;8.70;;
42096;SDS011;27754;45.414;11.084;2023-09-19T06:38:11;17.20;;;8.23;;
42096;SDS011;27754;45.414;11.084;2023-09-19T06:40:41;12.27;;;8.40;;
42096;SDS011;27754;45.414;11.084;2023-09-19T06:43:10;16.40;;;8.65;;
42096;SDS011;27754;45.414;11.084;2023-09-19T06:45:38;18.98;;;8.05;;
42096;SDS011;27754;45.414;11.084;2023-09-19T06:48:06;15.00;;;8.15;;
42096;SDS011;27754;45.414;11.084;2023-09-19T06:50:33;20.67;;;8.98;;
42096;SDS011;27754;45.414;11.084;2023-09-19T06:53:00;15.98;;;8.35;;
42096;SDS011;27754;45.414;11.084;2023-09-19T06:55:29;16.98;;;8.38;;
42096;SDS011;27754;45.414;11.084;2023-09-19T06:57:59;16.05;;;8.45;;
42096;SDS011;27754;45.414;11.084;2023-09-19T07:00:26;16.40;;;8.23;;
42096;SDS011;27754;45.414;11.084;2023-09-19T07:02:55;14.80;;;8.23;;
42096;SDS011;27754;45.414;11.084;2023-09-19T07:05:28;14.52;;;7.25;;
42096;SDS011;27754;45.414;11.084;2023-09-19T07:07:55;25.13;;;8.32;;
42096;SDS011;27754;45.414;11.084;2023-09-19T07:10:22;15.80;;;7.45;;
42096;SDS011;27754;45.414;11.084;2023-09-19T07:13:01;14.48;;;7.70;;
42096;SDS011;27754;45.414;11.084;2023-09-19T07:15:29;18.73;;;8.93;;
42096;SDS011;27754;45.414;11.084;2023-09-19T07:18:02;17.05;;;8.48;;
42096;SDS011;27754;45.414;11.084;2023-09-19T07:20:29;18.63;;;8.85;;
42096;SDS011;27754;45.414;11.084;2023-09-19T07:22:59;17.63;;;7.45;;
42096;SDS011;27754;45.414;11.084;2023-09-19T07:25:27;20.95;;;9.30;;
42096;SDS011;27754;45.414;11.084;2023-09-19T07:27:55;17.30;;;7.72;;
42096;SDS011;27754;45.414;11.084;2023-09-19T07:30:22;19.27;;;7.78;;
42096;SDS011;27754;45.414;11.084;2023-09-19T07:32:52;14.43;;;7.05;;
42096;SDS011;27754;45.414;11.084;2023-09-19T07:35:20;17.92;;;7.97;;
42096;SDS011;27754;45.414;11.084;2023-09-19T07:37:47;15.68;;;7.18;;
42096;SDS011;27754;45.414;11.084;2023-09-19T07:40:18;14.63;;;7.07;;
42096;SDS011;27754;45.414;11.084;2023-09-19T07:42:47;11.15;;;6.30;;
42096;SDS011;27754;45.414;11.084;2023-09-19T07:45:15;15.18;;;6.15;;
42096;SDS011;27754;45.414;11.084;2023-09-19T07:47:47;14.25;;;5.80;;
42096;SDS011;27754;45.414;11.084;2023-09-19T07:50:15;14.65;;;6.20;;
42096;SDS011;27754;45.414;11.084;2023-09-19T07:52:45;11.07;;;5.28;;
42096;SDS011;27754;45.414;11.084;2023-09-19T07:55:20;12.15;;;5.45;;
42096;SDS011;27754;45.414;11.084;2023-09-19T07:57:50;10.55;;;5.13;;
42096;SDS011;27754;45.414;11.084;2023-09-19T08:00:18;10.32;;;4.28;;
42096;SDS011;27754;45.414;11.084;2023-09-19T08:02:45;10.38;;;4.13;;
42096;SDS011;27754;45.414;11.084;2023-09-19T08:05:16;10.95;;;4.63;;
42096;SDS011;27754;45.414;11.084;2023-09-19T08:07:44;10.95;;;4.78;;
42096;SDS011;27754;45.414;11.084;2023-09-19T08:10:15;8.68;;;3.72;;
42096;SDS011;27754;45.414;11.084;2023-09-19T08:12:46;8.60;;;4.00;;
42096;SDS011;27754;45.414;11.084;2023-09-19T08:15:15;14.63;;;3.55;;
42096;SDS011;27754;45.414;11.084;2023-09-19T08:17:43;8.05;;;3.50;;
42096;SDS011;27754;45.414;11.084;2023-09-19T08:20:11;15.45;;;3.97;;
42096;SDS011;27754;45.414;11.084;2023-09-19T08:22:48;10.70;;;3.17;;
42096;SDS011;27754;45.414;11.084;2023-09-19T08:25:19;8.98;;;2.70;;
42096;SDS011;27754;45.414;11.084;2023-09-19T08:27:51;7.78;;;2.40;;
42096;SDS011;27754;45.414;11.084;2023-09-19T08:30:19;10.45;;;3.13;;
42096;SDS011;27754;45.414;11.084;2023-09-19T08:32:51;10.30;;;3.03;;
42096;SDS011;27754;45.414;11.084;2023-09-19T08:35:23;11.27;;;3.05;;
42096;SDS011;27754;45.414;11.084;2023-09-19T08:37:51;12.43;;;3.25;;
42096;SDS011;27754;45.414;11.084;2023-09-19T08:40:18;11.35;;;3.05;;
42096;SDS011;27754;45.414;11.084;2023-09-19T08:42:49;7.10;;;3.15;;
42096;SDS011;27754;45.414;11.084;2023-09-19T08:45:21;9.10;;;3.22;;
42096;SDS011;27754;45.414;11.084;2023-09-19T08:50:37;10.63;;;3.13;;
42096;SDS011;27754;45.414;11.084;2023-09-19T08:53:10;11.13;;;2.80;;
42096;SDS011;27754;45.414;11.084;2023-09-19T08:55:42;8.55;;;3.08;;
42096;SDS011;27754;45.414;11.084;2023-09-19T08:58:12;10.23;;;3.33;;
42096;SDS011;27754;45.414;11.084;2023-09-19T09:00:46;9.68;;;3.47;;
42096;SDS011;27754;45.414;11.084;2023-09-19T09:03:16;5.15;;;2.60;;
42096;SDS011;27754;45.414;11.084;2023-09-19T09:05:46;13.80;;;3.25;;
42096;SDS011;27754;45.414;11.084;2023-09-19T09:08:14;13.82;;;3.28;;
42096;SDS011;27754;45.414;11.084;2023-09-19T09:10:44;13.75;;;3.42;;
42096;SDS011;27754;45.414;11.084;2023-09-19T09:13:11;9.68;;;2.92;;
42096;SDS011;27754;45.414;11.084;2023-09-19T09:15:40;13.55;;;3.45;;
42096;SDS011;27754;45.414;11.084;2023-09-19T09:18:08;8.63;;;2.75;;
42096;SDS011;27754;45.414;11.084;2023-09-19T09:20:35;10.35;;;2.80;;
42096;SDS011;27754;45.414;11.084;2023-09-19T09:23:03;8.20;;;2.60;;
42096;SDS011;27754;45.414;11.084;2023-09-19T09:28:27;9.30;;;2.53;;
42096;SDS011;27754;45.414;11.084;2023-09-19T09:30:55;7.45;;;2.30;;
42096;SDS011;27754;45.414;11.084;2023-09-19T09:33:22;11.75;;;3.15;;
42096;SDS011;27754;45.414;11.084;2023-09-19T09:35:59;9.68;;;2.42;;
42096;SDS011;27754;45.414;11.084;2023-09-19T09:38:30;10.70;;;3.65;;
42096;SDS011;27754;45.414;11.084;2023-09-19T09:41:21;7.32;;;2.15;;
42096;SDS011;27754;45.414;11.084;2023-09-19T09:44:11;12.70;;;2.80;;
42096;SDS011;27754;45.414;11.084;2023-09-19T09:46:46;15.88;;;3.25;;
42096;SDS011;27754;45.414;11.084;2023-09-19T09:49:22;7.55;;;2.53;;
42096;SDS011;27754;45.414;11.084;2023-09-19T09:52:02;6.50;;;2.70;;
42096;SDS011;27754;45.414;11.084;2023-09-19T09:54:37;9.00;;;2.67;;
42096;SDS011;27754;45.414;11.084;2023-09-19T09:57:05;5.43;;;2.13;;
42096;SDS011;27754;45.414;11.084;2023-09-19T09:59:52;9.82;;;2.70;;
42096;SDS011;27754;45.414;11.084;2023-09-19T10:02:35;6.53;;;2.40;;
42096;SDS011;27754;45.414;11.084;2023-09-19T10:05:14;10.02;;;3.08;;
42096;SDS011;27754;45.414;11.084;2023-09-19T10:07:46;9.77;;;2.78;;
42096;SDS011;27754;45.414;11.084;2023-09-19T10:13:08;9.25;;;3.00;;
42096;SDS011;27754;45.414;11.084;2023-09-19T10:15:44;8.30;;;3.20;;
42096;SDS011;27754;45.414;11.084;2023-09-19T10:18:19;14.77;;;3.20;;
42096;SDS011;27754;45.414;11.084;2023-09-19T10:23:41;20.05;;;3.30;;
42096;SDS011;27754;45.414;11.084;2023-09-19T10:26:11;13.45;;;3.50;;
42096;SDS011;27754;45.414;11.084;2023-09-19T10:28:43;9.25;;;3.45;;
42096;SDS011;27754;45.414;11.084;2023-09-19T10:31:17;10.35;;;3.22;;
42096;SDS011;27754;45.414;11.084;2023-09-19T10:33:47;8.88;;;3.30;;
42096;SDS011;27754;45.414;11.084;2023-09-19T10:36:16;10.50;;;3.42;;
42096;SDS011;27754;45.414;11.084;2023-09-19T10:38:45;9.85;;;3.40;;
42096;SDS011;27754;45.414;11.084;2023-09-19T10:41:14;10.77;;;3.10;;
42096;SDS011;27754;45.414;11.084;2023-09-19T10:43:46;10.68;;;3.55;;
42096;SDS011;27754;45.414;11.084;2023-09-19T10:46:15;10.30;;;3.42;;
42096;SDS011;27754;45.414;11.084;2023-09-19T10:48:42;7.53;;;3.03;;
42096;SDS011;27754;45.414;11.084;2023-09-19T10:51:19;9.75;;;3.03;;
42096;SDS011;27754;45.414;11.084;2023-09-19T10:54:10;9.77;;;2.72;;
42096;SDS011;27754;45.414;11.084;2023-09-19T10:56:44;11.18;;;3.00;;
42096;SDS011;27754;45.414;11.084;2023-09-19T10:59:16;9.65;;;3.05;;
42096;SDS011;27754;45.414;11.084;2023-09-19T11:07:09;13.55;;;4.00;;
42096;SDS011;27754;45.414;11.084;2023-09-19T11:09:54;7.25;;;2.97;;
42096;SDS011;27754;45.414;11.084;2023-09-19T11:14:58;9.23;;;2.90;;
42096;SDS011;27754;45.414;11.084;2023-09-19T11:17:32;11.48;;;3.40;;
42096;SDS011;27754;45.414;11.084;2023-09-19T11:30:45;9.90;;;3.70;;
42096;SDS011;27754;45.414;11.084;2023-09-19T11:33:30;8.70;;;2.97;;
42096;SDS011;27754;45.414;11.084;2023-09-19T11:43:49;8.25;;;2.90;;
42096;SDS011;27754;45.414;11.084;2023-09-19T11:46:21;11.52;;;3.28;;
42096;SDS011;27754;45.414;11.084;2023-09-19T11:48:49;8.15;;;2.80;;
42096;SDS011;27754;45.414;11.084;2023-09-19T11:51:18;9.32;;;3.47;;
42096;SDS011;27754;45.414;11.084;2023-09-19T11:53:51;11.15;;;2.72;;
42096;SDS011;27754;45.414;11.084;2023-09-19T11:56:23;8.83;;;2.90;;
42096;SDS011;27754;45.414;11.084;2023-09-19T11:58:53;10.90;;;2.67;;
42096;SDS011;27754;45.414;11.084;2023-09-19T12:01:23;11.60;;;3.25;;
42096;SDS011;27754;45.414;11.084;2023-09-19T12:04:02;10.13;;;2.92;;
42096;SDS011;27754;45.414;11.084;2023-09-19T12:06:31;10.75;;;2.53;;
42096;SDS011;27754;45.414;11.084;2023-09-19T12:08:59;8.20;;;2.97;;
42096;SDS011;27754;45.414;11.084;2023-09-19T12:11:29;11.18;;;2.92;;
42096;SDS011;27754;45.414;11.084;2023-09-19T12:14:01;8.77;;;3.05;;
42096;SDS011;27754;45.414;11.084;2023-09-19T12:16:29;9.50;;;3.10;;
42096;SDS011;27754;45.414;11.084;2023-09-19T12:19:17;6.75;;;2.35;;
42096;SDS011;27754;45.414;11.084;2023-09-19T12:21:54;7.15;;;2.47;;
42096;SDS011;27754;45.414;11.084;2023-09-19T12:24:26;9.00;;;2.65;;
42096;SDS011;27754;45.414;11.084;2023-09-19T12:27:00;10.63;;;2.75;;
42096;SDS011;27754;45.414;11.084;2023-09-19T12:29:31;7.85;;;2.75;;
42096;SDS011;27754;45.414;11.084;2023-09-19T12:32:34;7.07;;;2.40;;
42096;SDS011;27754;45.414;11.084;2023-09-19T12:35:02;5.18;;;2.30;;
42096;SDS011;27754;45.414;11.084;2023-09-19T12:37:34;4.30;;;1.92;;
42096;SDS011;27754;45.414;11.084;2023-09-19T12:40:09;5.50;;;2.30;;
42096;SDS011;27754;45.414;11.084;2023-09-19T12:42:44;5.53;;;2.30;;
42096;SDS011;27754;45.414;11.084;2023-09-19T12:45:13;12.60;;;2.38;;
42096;SDS011;27754;45.414;11.084;2023-09-19T12:51:04;6.05;;;2.28;;
42096;SDS011;27754;45.414;11.084;2023-09-19T12:53:43;7.07;;;2.13;;
42096;SDS011;27754;45.414;11.084;2023-09-19T12:56:14;8.52;;;2.75;;
42096;SDS011;27754;45.414;11.084;2023-09-19T12:58:48;6.45;;;2.40;;
42096;SDS011;27754;45.414;11.084;2023-09-19T13:01:22;9.60;;;2.53;;
42096;SDS011;27754;45.414;11.084;2023-09-19T13:04:17;8.02;;;2.25;;
42096;SDS011;27754;45.414;11.084;2023-09-19T13:10:16;12.50;;;2.60;;
42096;SDS011;27754;45.414;11.084;2023-09-19T13:12:43;5.20;;;2.45;;
42096;SDS011;27754;45.414;11.084;2023-09-19T13:15:14;9.23;;;3.10;;
42096;SDS011;27754;45.414;11.084;2023-09-19T13:17:47;8.77;;;2.67;;
42096;SDS011;27754;45.414;11.084;2023-09-19T13:20:22;7.82;;;3.13;;
42096;SDS011;27754;45.414;11.084;2023-09-19T13:22:59;12.02;;;3.17;;
42096;SDS011;27754;45.414;11.084;2023-09-19T13:25:31;7.97;;;2.88;;
42096;SDS011;27754;45.414;11.084;2023-09-19T13:28:07;9.05;;;3.05;;
42096;SDS011;27754;45.414;11.084;2023-09-19T13:30:37;8.07;;;3.10;;
42096;SDS011;27754;45.414;11.084;2023-09-19T13:33:09;10.07;;;3.08;;
42096;SDS011;27754;45.414;11.084;2023-09-19T13:35:41;8.15;;;2.85;;
42096;SDS011;27754;45.414;11.084;2023-09-19T13:38:08;8.90;;;2.70;;
42096;SDS011;27754;45.414;11.084;2023-09-19T13:40:38;6.47;;;3.00;;
42096;SDS011;27754;45.414;11.084;2023-09-19T13:43:10;8.50;;;2.90;;
42096;SDS011;27754;45.414;11.084;2023-09-19T13:45:40;11.60;;;3.80;;
42096;SDS011;27754;45.414;11.084;2023-09-19T13:48:10;12.02;;;3.75;;
42096;SDS011;27754;45.414;11.084;2023-09-19T13:50:40;8.60;;;3.70;;
42096;SDS011;27754;45.414;11.084;2023-09-19T13:53:09;11.88;;;3.97;;
42096;SDS011;27754;45.414;11.084;2023-09-19T13:55:36;11.23;;;3.67;;
42096;SDS011;27754;45.414;11.084;2023-09-19T13:58:04;8.55;;;3.30;;
42096;SDS011;27754;45.414;11.084;2023-09-19T14:00:32;12.40;;;3.63;;
42096;SDS011;27754;45.414;11.084;2023-09-19T14:03:00;6.50;;;2.85;;
42096;SDS011;27754;45.414;11.084;2023-09-19T14:05:28;11.30;;;3.17;;
42096;SDS011;27754;45.414;11.084;2023-09-19T14:07:56;11.20;;;3.22;;
42096;SDS011;27754;45.414;11.084;2023-09-19T14:10:25;10.95;;;3.45;;
42096;SDS011;27754;45.414;11.084;2023-09-19T14:12:54;9.57;;;3.50;;
42096;SDS011;27754;45.414;11.084;2023-09-19T14:15:21;8.60;;;3.10;;
42096;SDS011;27754;45.414;11.084;2023-09-19T14:17:58;9.88;;;3.25;;
42096;SDS011;27754;45.414;11.084;2023-09-19T14:20:27;7.22;;;2.70;;
42096;SDS011;27754;45.414;11.084;2023-09-19T14:22:55;11.10;;;3.13;;
42096;SDS011;27754;45.414;11.084;2023-09-19T14:25:24;7.15;;;2.67;;
42096;SDS011;27754;45.414;11.084;2023-09-19T14:27:51;7.05;;;3.15;;
42096;SDS011;27754;45.414;11.084;2023-09-19T14:30:18;9.13;;;2.85;;
42096;SDS011;27754;45.414;11.084;2023-09-19T14:32:46;8.80;;;3.10;;
42096;SDS011;27754;45.414;11.084;2023-09-19T14:35:13;9.20;;;3.10;;
42096;SDS011;27754;45.414;11.084;2023-09-19T14:37:40;6.45;;;2.75;;
42096;SDS011;27754;45.414;11.084;2023-09-19T14:40:07;7.28;;;2.80;;
42096;SDS011;27754;45.414;11.084;2023-09-19T14:42:38;9.50;;;3.17;;
42096;SDS011;27754;45.414;11.084;2023-09-19T14:45:06;6.85;;;2.78;;
42096;SDS011;27754;45.414;11.084;2023-09-19T14:47:33;8.75;;;2.58;;
42096;SDS011;27754;45.414;11.084;2023-09-19T14:50:01;7.85;;;3.03;;
42096;SDS011;27754;45.414;11.084;2023-09-19T14:52:33;7.80;;;2.78;;
42096;SDS011;27754;45.414;11.084;2023-09-19T14:55:02;8.00;;;2.65;;
42096;SDS011;27754;45.414;11.084;2023-09-19T14:57:31;9.20;;;2.92;;
42096;SDS011;27754;45.414;11.084;2023-09-19T14:59:58;7.13;;;2.33;;
42096;SDS011;27754;45.414;11.084;2023-09-19T15:02:26;7.55;;;2.70;;
42096;SDS011;27754;45.414;11.084;2023-09-19T15:04:54;7.60;;;2.15;;
42096;SDS011;27754;45.414;11.084;2023-09-19T15:07:21;4.97;;;2.22;;
42096;SDS011;27754;45.414;11.084;2023-09-19T15:09:48;4.20;;;2.35;;
42096;SDS011;27754;45.414;11.084;2023-09-19T15:12:15;4.45;;;1.92;;
42096;SDS011;27754;45.414;11.084;2023-09-19T15:14:43;6.60;;;2.35;;
42096;SDS011;27754;45.414;11.084;2023-09-19T15:17:10;10.48;;;2.50;;
42096;SDS011;27754;45.414;11.084;2023-09-19T15:19:37;7.40;;;2.20;;
42096;SDS011;27754;45.414;11.084;2023-09-19T15:22:04;8.00;;;2.05;;
42096;SDS011;27754;45.414;11.084;2023-09-19T15:24:32;13.77;;;2.38;;
42096;SDS011;27754;45.414;11.084;2023-09-19T15:26:59;6.55;;;2.30;;
42096;SDS011;27754;45.414;11.084;2023-09-19T15:29:26;7.38;;;2.65;;
42096;SDS011;27754;45.414;11.084;2023-09-19T15:31:54;5.15;;;2.28;;
42096;SDS011;27754;45.414;11.084;2023-09-19T15:34:25;5.25;;;2.55;;
42096;SDS011;27754;45.414;11.084;2023-09-19T15:36:52;10.18;;;2.45;;
42096;SDS011;27754;45.414;11.084;2023-09-19T15:39:19;10.13;;;2.88;;
42096;SDS011;27754;45.414;11.084;2023-09-19T15:41:48;6.05;;;2.17;;
42096;SDS011;27754;45.414;11.084;2023-09-19T15:44:18;5.68;;;2.35;;
42096;SDS011;27754;45.414;11.084;2023-09-19T15:46:46;7.15;;;2.35;;
42096;SDS011;27754;45.414;11.084;2023-09-19T15:49:13;10.07;;;2.38;;